Time;durP1;ratioP1;P1;durP2;ratioP2;P2;SDS_P1;SDS_P2;PMS_P1;PMS_P2;Temp;Humidity;BMP_temperature;BMP_pressure;BME280_temperature;BME280_humidity;BME280_pressure;Samples;Min_cycle;Max_cycle;Signal;HPM_P1;HPM_P2
2022/06/14 00:01:33;;;;;;;4.92;2.80;;;;;;;21.75;58.61;98874.99;1752427;81;21096;-67
2022/06/14 00:04:03;;;;;;;5.45;3.00;;;;;;;21.76;58.31;98872.37;1758921;81;21043;-68
2022/06/14 00:06:31;;;;;;;4.65;3.27;;;;;;;21.79;57.78;98873.56;1760241;81;21028;-66
2022/06/14 00:08:59;;;;;;;5.58;3.30;;;;;;;21.80;57.44;98870.97;1758422;81;21004;-67
2022/06/14 00:11:29;;;;;;;3.92;3.12;;;;;;;21.81;57.59;98871.16;1757987;81;21051;-67
2022/06/14 00:13:56;;;;;;;5.03;3.80;;;;;;;21.81;57.69;98867.75;1750017;81;22116;-66
2022/06/14 00:16:23;;;;;;;8.80;3.15;;;;;;;21.81;57.52;98870.55;1707496;83;21041;-67
2022/06/14 00:18:51;;;;;;;8.90;3.60;;;;;;;21.81;57.49;98864.14;1757321;81;21085;-67
2022/06/14 00:21:18;;;;;;;6.62;3.52;;;;;;;21.80;57.52;98864.77;1758167;81;20999;-65
2022/06/14 00:23:47;;;;;;;6.70;3.10;;;;;;;21.79;57.35;98862.35;1759144;81;21599;-66
2022/06/14 00:26:15;;;;;;;5.58;3.05;;;;;;;21.78;57.51;98858.74;1752997;81;21152;-67
2022/06/14 00:28:43;;;;;;;9.45;3.33;;;;;;;21.77;57.53;98860.74;1758650;81;21016;-66
2022/06/14 00:31:15;;;;;;;5.47;3.15;;;;;;;21.76;57.63;98851.34;1760004;80;21004;-67
2022/06/14 00:33:44;;;;;;;3.30;3.00;;;;;;;21.74;57.56;98851.77;1759396;81;21083;-68
2022/06/14 00:36:30;;;;;;;6.28;3.10;;;;;;;21.72;57.59;98851.38;1756970;81;21035;-65
2022/06/14 00:38:59;;;;;;;8.18;3.62;;;;;;;21.71;57.51;98850.38;1755999;81;21327;-67
2022/06/14 00:41:33;;;;;;;5.35;3.90;;;;;;;21.69;57.71;98850.80;1753311;81;21328;-66
2022/06/14 00:44:00;;;;;;;5.03;3.50;;;;;;;21.67;57.81;98845.41;1750758;81;21004;-66
2022/06/14 00:46:39;;;;;;;7.83;3.45;;;;;;;21.64;57.74;98847.03;1758897;81;21099;-66
2022/06/14 00:49:12;;;;;;;7.60;3.37;;;;;;;21.61;57.89;98844.47;1729649;81;21035;-68
2022/06/14 00:51:46;;;;;;;6.53;3.50;;;;;;;21.60;58.02;98843.45;1755551;81;21728;-68
2022/06/14 00:54:26;;;;;;;7.47;3.65;;;;;;;21.57;57.94;98843.69;1758484;81;21087;-69
2022/06/14 00:57:08;;;;;;;3.45;3.08;;;;;;;21.53;58.08;98842.31;1750269;81;21078;-67
2022/06/14 00:59:45;;;;;;;5.65;3.00;;;;;;;21.50;57.92;98838.94;1750932;81;21000;-68
2022/06/14 01:02:23;;;;;;;10.48;3.45;;;;;;;21.45;58.10;98836.56;1759759;81;21517;-67
2022/06/14 01:04:50;;;;;;;6.58;3.55;;;;;;;21.43;58.11;98832.59;1758454;81;21465;-68
2022/06/14 01:07:31;;;;;;;4.83;3.55;;;;;;;21.41;58.12;98838.59;1690364;81;21012;-67
2022/06/14 01:10:08;;;;;;;4.67;2.95;;;;;;;21.38;58.01;98836.02;1751754;81;21051;-67
2022/06/14 01:12:38;;;;;;;3.67;3.35;;;;;;;21.36;58.02;98830.02;1752398;81;21514;-67
2022/06/14 01:15:21;;;;;;;9.70;3.17;;;;;;;21.35;57.96;98836.84;1739860;81;21493;-69
2022/06/14 01:17:53;;;;;;;4.42;3.35;;;;;;;21.33;57.83;98835.05;1729226;82;21568;-69
2022/06/14 01:20:21;;;;;;;7.47;3.40;;;;;;;21.32;57.86;98831.27;1711168;82;21497;-68
2022/06/14 01:22:48;;;;;;;4.28;3.30;;;;;;;21.30;57.41;98830.27;1726307;82;21358;-68
2022/06/14 01:25:14;;;;;;;6.70;3.45;;;;;;;21.28;57.49;98829.29;1705213;82;21005;-67
2022/06/14 01:27:42;;;;;;;5.33;2.83;;;;;;;21.26;57.66;98830.89;1724437;82;21017;-68
2022/06/14 01:30:26;;;;;;;3.83;3.08;;;;;;;21.25;57.37;98832.91;1725411;82;21149;-67
2022/06/14 01:32:55;;;;;;;;;;;;;;;21.24;57.17;98834.73;1729255;82;21040;-68
2022/06/14 01:35:26;;;;;;;8.25;2.90;;;;;;;21.22;57.12;98835.73;1727909;82;20407;-66
2022/06/14 01:37:55;;;;;;;4.40;2.85;;;;;;;21.20;57.02;98835.34;1724481;82;21505;-67
2022/06/14 01:40:40;;;;;;;3.20;2.90;;;;;;;21.18;57.03;98832.95;1728782;82;21048;-67
2022/06/14 01:43:23;;;;;;;3.40;2.45;;;;;;;21.17;56.81;98824.37;1691302;84;21562;-65
2022/06/14 01:46:21;;;;;;;;;;;;;;;21.15;56.95;98830.35;1707319;83;21603;-67
2022/06/14 01:52:32;;;;;;;5.55;2.77;;;;;;;21.12;56.25;98817.80;1679559;85;21084;-68
2022/06/14 01:55:40;;;;;;;4.87;2.80;;;;;;;21.10;56.30;98816.78;1723838;82;21584;-67
2022/06/14 01:58:39;;;;;;;3.30;2.40;;;;;;;21.07;56.37;98813.41;1693725;84;21137;-68
2022/06/14 02:01:31;;;;;;;2.75;2.40;;;;;;;21.06;56.50;98818.02;1734690;82;21068;-68
2022/06/14 02:07:29;;;;;;;5.17;2.72;;;;;;;21.02;56.28;98818.03;1727680;82;21068;-66
2022/06/14 02:10:08;;;;;;;6.00;2.70;;;;;;;21.00;56.43;98821.24;1685428;84;21031;-67
2022/06/14 02:12:48;;;;;;;3.02;2.30;;;;;;;21.00;56.27;98815.64;1722996;81;21544;-66
2022/06/14 02:15:45;;;;;;;6.15;2.77;;;;;;;20.99;56.24;98814.66;1758454;81;21000;-66
2022/06/14 02:18:28;;;;;;;4.03;2.70;;;;;;;20.98;56.58;98814.47;1714136;83;21087;-67
2022/06/14 02:21:15;;;;;;;3.95;2.60;;;;;;;20.96;56.58;98812.09;1714609;83;21076;-66
2022/06/14 02:23:48;;;;;;;8.20;2.90;;;;;;;20.94;56.64;98818.69;1711871;83;21025;-68
2022/06/14 02:26:38;;;;;;;3.85;2.95;;;;;;;20.94;56.65;98815.08;1714756;83;21040;-68
2022/06/14 02:29:18;;;;;;;2.75;2.42;;;;;;;20.92;56.63;98803.67;1707085;83;21176;-67
2022/06/14 02:31:59;;;;;;;3.65;2.33;;;;;;;20.93;56.68;98811.50;1713605;82;21577;-68
2022/06/14 02:34:42;;;;;;;3.85;2.58;;;;;;;20.91;55.86;98813.26;1711101;83;21035;-67
2022/06/14 02:37:21;;;;;;;3.40;2.47;;;;;;;20.91;55.81;98809.05;1701768;84;21068;-65
2022/06/14 02:40:03;;;;;;;3.22;2.60;;;;;;;20.94;56.44;98808.89;1711801;83;21804;-67
2022/06/14 02:42:37;;;;;;;5.40;2.62;;;;;;;20.96;56.78;98816.28;1710872;82;21027;-64
2022/06/14 02:45:21;;;;;;;3.45;2.72;;;;;;;20.96;56.79;98807.08;1710592;83;21087;-65
2022/06/14 02:48:12;;;;;;;3.17;2.45;;;;;;;20.96;57.41;98813.48;1682972;83;21063;-67
2022/06/14 02:50:50;;;;;;;3.77;2.70;;;;;;;20.96;57.96;98812.67;1714852;83;21004;-66
2022/06/14 02:53:35;;;;;;;6.17;2.62;;;;;;;20.94;58.17;98802.48;1715912;82;21036;-67
2022/06/14 02:56:19;;;;;;;4.83;2.72;;;;;;;20.92;58.61;98801.47;1752853;81;21496;-69
2022/06/14 02:58:52;;;;;;;;;;;;;;;20.88;58.37;98792.30;1756719;81;21575;-67
2022/06/14 03:01:49;;;;;;;5.62;2.50;;;;;;;20.86;58.62;98791.31;1726889;81;20182;-67
2022/06/14 03:04:50;;;;;;;5.30;2.58;;;;;;;20.84;59.93;98781.72;1741368;81;21091;-67
2022/06/14 03:07:31;;;;;;;3.62;3.05;;;;;;;20.84;59.82;98785.92;1757861;81;21229;-68
2022/06/14 03:09:59;;;;;;;3.80;2.67;;;;;;;20.88;59.22;98786.71;1759150;81;21555;-66
2022/06/14 03:12:52;;;;;;;6.40;3.80;;;;;;;20.92;58.91;98785.48;1744800;81;21039;-65
2022/06/14 03:15:47;;;;;;;5.05;2.87;;;;;;;20.96;58.73;98790.28;1729546;81;21014;-67
2022/06/14 03:18:34;;;;;;;4.37;2.80;;;;;;;20.97;58.87;98791.27;1732043;81;21140;-64
2022/06/14 03:21:19;;;;;;;6.67;2.90;;;;;;;20.99;58.75;98782.45;1743177;81;21519;-66
2022/06/14 03:24:06;;;;;;;7.22;2.83;;;;;;;21.01;57.83;98788.45;1749825;81;21079;-66
2022/06/14 03:27:08;;;;;;;16.07;3.60;;;;;;;21.03;56.97;98801.45;1736226;81;21154;-66
2022/06/14 03:29:45;;;;;;;6.17;3.05;;;;;;;21.07;57.15;98802.83;1748578;81;21036;-67
2022/06/14 03:32:41;;;;;;;8.68;3.67;;;;;;;21.10;57.33;98829.38;1747330;81;21547;-65
2022/06/14 03:35:12;;;;;;;5.85;4.03;;;;;;;21.06;58.18;98832.82;1732023;81;21142;-66
2022/06/14 03:37:41;;;;;;;10.40;5.20;;;;;;;20.99;58.55;98848.25;1704722;82;21095;-67
2022/06/14 03:40:13;;;;;;;9.45;5.37;;;;;;;20.89;58.76;98845.08;1733353;81;21056;-65
2022/06/14 03:42:41;;;;;;;9.20;5.42;;;;;;;20.78;59.07;98846.52;1733784;81;21065;-65
2022/06/14 03:45:09;;;;;;;8.78;5.35;;;;;;;20.72;59.38;98847.34;1752980;81;21020;-67
2022/06/14 03:47:35;;;;;;;7.75;5.30;;;;;;;20.65;59.70;98843.39;1753265;81;21780;-65
2022/06/14 03:50:12;;;;;;;9.50;5.65;;;;;;;20.63;59.86;98847.19;1725878;81;21096;-65
2022/06/14 03:53:00;;;;;;;10.28;5.12;;;;;;;20.59;60.18;98846.39;1735278;81;21527;-67
2022/06/14 03:55:42;;;;;;;9.20;5.05;;;;;;;20.57;60.53;98846.02;1752615;81;21050;-68
2022/06/14 03:58:37;;;;;;;11.88;5.70;;;;;;;20.58;60.58;98853.79;1746843;81;21086;-69
2022/06/14 04:01:17;;;;;;;11.90;5.95;;;;;;;20.56;60.67;98856.99;1701944;83;22248;-67
2022/06/14 04:04:18;;;;;;;9.68;5.28;;;;;;;20.56;60.78;98868.19;1679457;84;21532;-67
2022/06/14 04:07:25;;;;;;;8.03;5.55;;;;;;;20.54;60.75;98869.19;1695555;83;21037;-68
2022/06/14 04:10:16;;;;;;;10.40;6.40;;;;;;;20.44;61.21;98873.61;1702040;83;21098;-66
2022/06/14 04:13:04;;;;;;;12.75;5.60;;;;;;;20.38;61.72;98889.22;1699185;83;21054;-68
2022/06/14 04:16:01;;;;;;;10.85;5.85;;;;;;;20.41;61.51;98903.20;1702099;82;21254;-68
2022/06/14 04:18:47;;;;;;;12.68;5.35;;;;;;;20.40;61.58;98927.38;1637596;83;21047;-66
2022/06/14 04:21:42;;;;;;;10.82;6.00;;;;;;;20.35;61.31;98922.97;1707310;83;21094;-66
2022/06/14 04:24:21;;;;;;;11.53;5.20;;;;;;;20.26;61.59;98931.80;1704613;82;21032;-67
2022/06/14 04:27:22;;;;;;;12.63;4.58;;;;;;;20.16;61.97;98929.80;1705897;82;21076;-65
2022/06/14 04:29:57;;;;;;;9.95;4.47;;;;;;;20.09;62.55;98938.19;1684498;84;21531;-65
2022/06/14 04:32:37;;;;;;;8.68;4.03;;;;;;;19.95;62.83;98954.53;1707423;82;21702;-67
2022/06/14 04:35:16;;;;;;;10.18;4.22;;;;;;;19.87;63.55;98963.30;1688492;82;21001;-67
2022/06/14 04:37:54;;;;;;;17.62;4.92;;;;;;;19.81;63.85;98953.11;1704520;82;21186;-67
2022/06/14 04:40:28;;;;;;;8.23;4.45;;;;;;;19.79;64.32;98963.29;1705888;82;21024;-66
2022/06/14 04:43:03;;;;;;;14.28;3.90;;;;;;;19.81;64.59;98967.89;1687718;84;21269;-65
2022/06/14 04:46:01;;;;;;;10.60;3.75;;;;;;;19.90;65.13;98968.09;1703532;82;21187;-66
2022/06/14 04:48:51;;;;;;;16.23;3.58;;;;;;;19.91;64.94;98972.48;1711131;82;21072;-66
2022/06/14 04:51:31;;;;;;;8.13;3.40;;;;;;;19.83;64.86;98976.69;1699497;83;21048;-68
2022/06/14 04:54:17;;;;;;;9.60;2.52;;;;;;;19.73;65.12;98980.84;1708708;82;21669;-66
2022/06/14 04:57:02;;;;;;;7.62;2.85;;;;;;;19.62;65.26;98971.05;1710345;83;21224;-69
2022/06/14 04:59:34;;;;;;;4.85;2.30;;;;;;;19.50;65.58;98981.38;1704886;82;21099;-67
2022/06/14 05:02:06;;;;;;;9.10;2.47;;;;;;;19.38;65.89;98987.34;1711357;82;21611;-67
2022/06/14 05:04:39;;;;;;;7.15;2.12;;;;;;;19.15;66.53;98982.85;1706905;82;21062;-66
2022/06/14 05:07:17;;;;;;;8.13;2.98;;;;;;;18.95;67.46;99000.66;1708941;82;21070;-65
2022/06/14 05:10:07;;;;;;;4.25;2.45;;;;;;;18.85;67.62;99018.17;1705302;82;21358;-68
2022/06/14 05:12:58;;;;;;;4.12;2.30;;;;;;;18.81;68.29;99014.55;1708009;83;21047;-68
2022/06/14 05:15:43;;;;;;;10.78;2.17;;;;;;;18.65;68.81;99014.23;1696206;83;21015;-67
2022/06/14 05:18:31;;;;;;;4.33;1.90;;;;;;;18.53;69.41;99027.09;1703334;83;21012;-67
2022/06/14 05:21:20;;;;;;;5.50;2.30;;;;;;;18.48;69.96;99027.66;1692548;83;21095;-68
2022/06/14 05:23:51;;;;;;;5.20;1.90;;;;;;;18.49;69.82;99023.68;1698536;83;21590;-67
2022/06/14 05:26:52;;;;;;;2.87;2.02;;;;;;;18.46;69.99;99025.85;1677836;84;21085;-68
2022/06/14 05:30:01;;;;;;;3.00;1.82;;;;;;;18.44;70.02;99033.02;1722038;81;21134;-68
2022/06/14 05:32:32;;;;;;;3.20;1.72;;;;;;;18.44;70.25;99046.96;1714555;82;21072;-67
2022/06/14 05:35:18;;;;;;;6.60;2.17;;;;;;;18.47;70.46;99038.63;1669458;85;21144;-68
2022/06/14 05:37:56;;;;;;;8.93;3.55;;;;;;;18.51;70.34;99043.43;1689410;83;21206;-69
2022/06/14 05:40:37;;;;;;;10.65;2.12;;;;;;;18.61;70.64;99046.28;1723820;81;21020;-66
2022/06/14 05:43:09;;;;;;;8.35;2.12;;;;;;;18.71;70.30;99041.97;1723302;81;21017;-66
2022/06/14 05:45:41;;;;;;;7.62;1.80;;;;;;;18.78;70.01;99050.20;1696212;83;21110;-68
2022/06/14 05:48:13;;;;;;;1.93;1.33;;;;;;;18.78;69.62;99046.80;1696979;83;21036;-66
2022/06/14 05:50:43;;;;;;;3.00;1.52;;;;;;;18.80;69.62;99065.35;1666903;84;21168;-67
2022/06/14 05:53:18;;;;;;;10.32;1.52;;;;;;;18.81;69.56;99070.34;1665154;84;21036;-66
2022/06/14 05:55:54;;;;;;;5.03;1.32;;;;;;;18.73;69.53;99085.63;1693449;83;21535;-66
2022/06/14 05:58:35;;;;;;;5.05;1.90;;;;;;;18.73;69.88;99093.22;1664838;85;21029;-65
2022/06/14 06:01:11;;;;;;;5.20;1.40;;;;;;;18.78;69.92;99090.66;1725359;81;21055;-66
2022/06/14 06:03:56;;;;;;;4.70;1.17;;;;;;;18.83;69.60;99098.06;1721999;81;21306;-67
2022/06/14 06:06:36;;;;;;;5.15;1.22;;;;;;;18.90;69.09;99096.53;1693135;83;21054;-66
2022/06/14 06:09:07;;;;;;;2.42;2.10;;;;;;;18.87;67.48;99102.28;1662513;84;21809;-65
2022/06/14 06:11:59;;;;;;;9.05;1.10;;;;;;;18.81;66.85;99095.47;1706317;82;21059;-66
2022/06/14 06:14:38;;;;;;;2.45;1.10;;;;;;;18.73;67.18;99092.61;1734481;80;21059;-66
2022/06/14 06:17:15;;;;;;;3.10;1.00;;;;;;;18.70;67.36;99105.94;1748036;81;21064;-67
2022/06/14 06:19:59;;;;;;;4.87;1.32;;;;;;;18.61;67.68;99114.63;1747792;81;21008;-67
2022/06/14 06:22:42;;;;;;;;;;;;;;;18.53;68.42;99124.13;1749361;81;20989;-68
2022/06/14 06:25:14;;;;;;;2.02;0.90;;;;;;;18.40;69.17;99126.41;1738852;81;20624;-67
2022/06/14 06:27:48;;;;;;;2.90;1.30;;;;;;;18.24;69.68;99124.64;1747527;81;21055;-66
2022/06/14 06:30:26;;;;;;;3.95;1.12;;;;;;;18.13;70.39;99113.98;1738329;81;21185;-67
2022/06/14 06:32:57;;;;;;;3.50;1.10;;;;;;;18.02;71.39;99136.12;1730838;81;21133;-67
2022/06/14 06:35:39;;;;;;;2.20;1.45;;;;;;;17.91;71.95;99164.45;1694915;82;21091;-66
2022/06/14 06:38:29;;;;;;;4.33;1.57;;;;;;;17.80;72.25;99184.63;1675110;84;21036;-65
2022/06/14 06:43:52;;;;;;;;;;;;;;;17.71;73.64;99184.09;1740423;81;21114;-64
2022/06/14 06:46:18;;;;;;;2.87;1.40;;;;;;;17.59;74.25;99179.55;1733750;81;20181;-67
2022/06/14 06:48:49;;;;;;;3.20;1.92;;;;;;;17.56;74.98;99176.13;1737520;81;21172;-65
2022/06/14 06:51:19;;;;;;;7.20;2.47;;;;;;;17.55;75.64;99174.53;1699410;81;21067;-65
2022/06/14 06:53:58;;;;;;;3.02;1.80;;;;;;;17.47;76.55;99175.81;1699216;83;21095;-66
2022/06/14 06:56:29;;;;;;;1.98;1.32;;;;;;;17.43;77.05;99181.94;1705049;82;21051;-66
2022/06/14 06:59:01;;;;;;;4.42;1.30;;;;;;;17.43;77.33;99177.76;1688334;84;21555;-66
2022/06/14 07:01:35;;;;;;;2.98;1.50;;;;;;;17.37;77.71;99171.70;1741006;81;21027;-66
2022/06/14 07:07:24;;;;;;;1.47;1.37;;;;;;;17.45;78.68;99174.59;1754196;81;21095;-62
2022/06/14 07:10:14;;;;;;;2.02;1.20;;;;;;;17.54;79.02;99196.00;1747310;81;21373;-65
2022/06/14 07:13:05;;;;;;;6.42;1.45;;;;;;;17.61;78.66;99217.58;1751186;81;21103;-67
2022/06/14 07:15:45;;;;;;;1.85;1.72;;;;;;;17.69;79.09;99217.11;1759315;80;21109;-68
2022/06/14 07:18:31;;;;;;;2.75;1.85;;;;;;;17.82;79.60;99212.10;1737680;81;21024;-66
2022/06/14 07:21:09;;;;;;;3.10;1.42;;;;;;;17.92;79.73;99212.03;1745028;81;21574;-67
2022/06/14 07:23:53;;;;;;;5.92;2.27;;;;;;;17.99;79.45;99214.92;1753523;81;22290;-67
2022/06/14 07:26:39;;;;;;;3.85;1.90;;;;;;;18.12;79.87;99215.47;1752409;81;20992;-68
2022/06/14 07:29:14;;;;;;;3.83;1.65;;;;;;;18.31;79.84;99217.91;1754911;81;21102;-65
2022/06/14 07:32:01;;;;;;;2.72;2.00;;;;;;;18.37;76.46;99219.20;1746959;81;22272;-66
2022/06/14 07:34:27;;;;;;;5.22;1.50;;;;;;;18.34;76.25;99224.92;1749539;81;21049;-64
2022/06/14 07:37:08;;;;;;;1.65;1.42;;;;;;;18.31;75.69;99234.64;1742341;81;21236;-65
2022/06/14 07:39:49;;;;;;;5.05;1.50;;;;;;;18.28;74.91;99227.85;1745901;81;21016;-64
2022/06/14 07:42:36;;;;;;;4.58;2.47;;;;;;;18.16;74.59;99233.08;1738533;81;21040;-66
2022/06/14 07:45:24;;;;;;;8.80;1.90;;;;;;;18.11;74.37;99236.17;1751074;81;21058;-68
2022/06/14 07:48:05;;;;;;;2.45;1.87;;;;;;;18.03;74.16;99233.90;1758729;81;21575;-65
2022/06/14 07:50:49;;;;;;;3.95;1.75;;;;;;;18.00;73.22;99241.59;1753042;81;22896;-66
2022/06/14 07:53:21;;;;;;;;;;;;;;;17.92;73.60;99230.14;1741775;81;21036;-67
2022/06/14 07:55:55;;;;;;;2.10;1.60;;;;;;;18.02;73.76;99230.87;1732124;81;20200;-64
2022/06/14 07:58:42;;;;;;;2.65;1.70;;;;;;;18.08;73.20;99243.91;1743679;81;21036;-66
2022/06/14 08:01:21;;;;;;;3.67;1.40;;;;;;;18.21;74.21;99245.30;1747397;81;21012;-68
2022/06/14 08:04:09;;;;;;;2.45;1.00;;;;;;;18.37;72.22;99247.86;1732031;81;21037;-69
2022/06/14 08:07:09;;;;;;;2.92;1.25;;;;;;;18.38;66.20;99254.25;1742469;81;21071;-67
2022/06/14 08:09:55;;;;;;;1.87;1.05;;;;;;;18.32;66.96;99250.20;1734506;81;21023;-67
2022/06/14 08:13:01;;;;;;;1.70;1.42;;;;;;;18.47;68.59;99259.55;1682354;82;21166;-65
2022/06/14 08:15:33;;;;;;;;;;;;;;;18.68;67.58;99252.60;1735264;81;21113;-67
2022/06/14 08:18:10;;;;;;;3.02;1.20;;;;;;;18.96;65.91;99257.67;1744986;81;21027;-68
2022/06/14 08:20:51;;;;;;;3.02;0.82;;;;;;;19.08;64.31;99253.80;1744144;81;21059;-68
2022/06/14 08:23:26;;;;;;;3.45;1.20;;;;;;;19.19;63.17;99262.27;1744518;81;22105;-68
2022/06/14 08:26:05;;;;;;;2.45;1.25;;;;;;;19.32;62.59;99268.39;1689496;82;21054;-67
2022/06/14 08:28:58;;;;;;;3.22;0.85;;;;;;;19.47;62.32;99268.48;1676203;84;21056;-67
2022/06/14 08:31:55;;;;;;;5.28;1.20;;;;;;;19.58;61.79;99270.76;1744867;81;21196;-67
2022/06/14 08:34:37;;;;;;;1.50;0.98;;;;;;;19.66;60.75;99287.00;1740174;81;21062;-65
2022/06/14 08:37:13;;;;;;;1.70;0.70;;;;;;;19.64;60.03;99287.98;1740986;81;21074;-66
2022/06/14 08:39:51;;;;;;;3.33;1.00;;;;;;;19.60;60.72;99289.95;1739646;81;21106;-66
2022/06/14 08:42:31;;;;;;;0.85;0.78;;;;;;;19.63;60.18;99298.95;1727309;81;21039;-65
2022/06/14 08:45:20;;;;;;;0.90;0.85;;;;;;;19.63;60.20;99294.77;1745054;81;22524;-66
2022/06/14 08:48:09;;;;;;;2.58;1.20;;;;;;;19.72;61.58;99298.59;1745969;81;21036;-67
2022/06/14 08:51:16;;;;;;;2.42;1.10;;;;;;;19.85;61.69;99297.70;1743323;81;21050;-65
2022/06/14 08:54:05;;;;;;;1.47;1.20;;;;;;;20.02;61.97;99301.81;1740125;81;21154;-64
2022/06/14 08:57:07;;;;;;;1.27;0.85;;;;;;;20.07;60.45;99299.27;1744547;81;21118;-66
2022/06/14 08:59:59;;;;;;;6.12;1.20;;;;;;;20.02;60.53;99300.41;1745549;81;21751;-66
2022/06/14 09:02:55;;;;;;;3.20;1.10;;;;;;;20.09;61.17;99290.48;1741504;81;21050;-67
2022/06/14 09:05:40;;;;;;;2.75;1.10;;;;;;;20.22;60.87;99302.13;1689434;81;21564;-67
2022/06/14 09:08:48;;;;;;;4.20;1.00;;;;;;;20.32;59.27;99298.58;1735426;81;21496;-65
2022/06/14 09:11:43;;;;;;;6.58;1.20;;;;;;;20.40;58.53;99301.61;1737239;81;21019;-67
2022/06/14 09:15:03;;;;;;;2.05;1.10;;;;;;;20.46;59.14;99298.44;1742153;81;21817;-64
2022/06/14 09:18:16;;;;;;;4.42;1.07;;;;;;;20.59;58.88;99308.08;1734954;81;20992;-64
2022/06/14 09:21:16;;;;;;;2.02;0.80;;;;;;;20.62;58.24;99293.91;1753941;81;21027;-65
2022/06/14 09:24:23;;;;;;;5.08;1.15;;;;;;;20.62;57.36;99303.12;1732764;81;21096;-67
2022/06/14 09:27:00;;;;;;;0.98;0.70;;;;;;;20.53;55.21;99321.67;1754169;81;21047;-66
2022/06/14 09:29:46;;;;;;;1.45;1.07;;;;;;;20.44;57.09;99319.81;1741975;81;21572;-67
2022/06/14 09:36:26;;;;;;;2.45;0.98;;;;;;;20.42;56.66;99318.03;1757789;81;21525;-66
2022/06/14 09:39:22;;;;;;;1.67;0.85;;;;;;;20.40;56.69;99314.20;1756172;81;21055;-68
2022/06/14 09:42:39;;;;;;;1.65;0.98;;;;;;;20.35;55.50;99318.77;1747394;81;22168;-65
2022/06/14 09:45:48;;;;;;;1.60;1.40;;;;;;;20.46;56.86;99322.22;1742988;81;21134;-65
2022/06/14 09:49:09;;;;;;;1.52;0.90;;;;;;;20.47;55.21;99321.04;1729692;81;21036;-67
2022/06/14 09:52:11;;;;;;;3.87;1.00;;;;;;;20.13;53.90;99327.05;1743091;81;21043;-66
2022/06/14 09:55:10;;;;;;;3.95;1.00;;;;;;;19.88;55.00;99326.27;1740619;81;21548;-67
2022/06/14 09:57:59;;;;;;;1.85;1.15;;;;;;;19.76;54.41;99321.80;1741447;81;21027;-68
2022/06/14 10:00:37;;;;;;;3.05;1.10;;;;;;;19.78;57.02;99320.01;1738863;81;21603;-68
2022/06/14 10:03:15;;;;;;;1.32;0.70;;;;;;;20.01;57.68;99330.94;1740692;81;21466;-68
2022/06/14 10:05:50;;;;;;;2.42;1.10;;;;;;;20.25;56.78;99333.52;1739850;81;22173;-67
2022/06/14 10:08:38;;;;;;;2.35;1.65;;;;;;;20.41;54.94;99330.40;1710053;81;21086;-66
2022/06/14 10:11:21;;;;;;;3.85;1.32;;;;;;;20.41;53.85;99332.61;1717511;81;21560;-67
2022/06/14 10:14:31;;;;;;;1.40;0.88;;;;;;;20.37;54.80;99331.77;1736743;81;21170;-65
2022/06/14 10:17:35;;;;;;;2.55;1.27;;;;;;;20.50;55.50;99327.24;1740824;80;21266;-66
2022/06/14 10:20:45;;;;;;;2.42;1.12;;;;;;;20.83;55.12;99318.36;1744268;81;21601;-68
2022/06/14 10:23:37;;;;;;;3.70;1.20;;;;;;;20.99;53.16;99315.23;1743852;81;21110;-65
2022/06/14 10:29:36;;;;;;;2.67;0.90;;;;;;;21.10;53.65;99322.86;1750301;81;21161;-67
2022/06/14 10:32:11;;;;;;;2.33;1.17;;;;;;;21.15;52.86;99328.85;1745164;81;21011;-67
2022/06/14 10:34:53;;;;;;;1.72;1.07;;;;;;;21.07;53.41;99318.06;1735363;81;21035;-66
2022/06/14 10:37:50;;;;;;;2.33;1.30;;;;;;;20.96;53.04;99320.83;1747243;81;21055;-65
2022/06/14 10:40:28;;;;;;;1.20;1.00;;;;;;;20.94;53.68;99314.81;1704930;82;21085;-64
2022/06/14 10:43:09;;;;;;;1.65;1.00;;;;;;;20.97;54.40;99312.62;1713482;82;21114;-67
2022/06/14 10:46:03;;;;;;;4.20;1.27;;;;;;;21.06;54.10;99314.45;1702883;82;21143;-66
2022/06/14 10:48:56;;;;;;;2.27;1.12;;;;;;;21.19;53.41;99316.88;1708647;82;21006;-65
2022/06/14 10:52:06;;;;;;;1.98;1.32;;;;;;;21.34;53.92;99309.29;1693525;82;21504;-66
2022/06/14 10:55:20;;;;;;;2.05;1.20;;;;;;;21.56;51.30;99308.70;1712464;82;21164;-66
2022/06/14 10:58:08;;;;;;;3.17;1.47;;;;;;;21.75;51.26;99299.67;1706425;82;21770;-66
2022/06/14 11:00:51;;;;;;;4.17;1.25;;;;;;;21.94;51.15;99300.47;1707488;82;21095;-67
2022/06/14 11:03:27;;;;;;;6.10;1.22;;;;;;;22.06;49.98;99294.41;1741323;81;21278;-67
2022/06/14 11:06:12;;;;;;;1.72;1.07;;;;;;;22.10;50.29;99298.02;1750493;81;21111;-65
2022/06/14 11:09:19;;;;;;;4.40;1.37;;;;;;;22.07;49.53;99298.03;1702679;84;21071;-66
2022/06/14 11:12:34;;;;;;;1.90;1.10;;;;;;;21.86;48.64;99301.88;1705949;84;21215;-65
2022/06/14 11:15:08;;;;;;;8.85;1.60;;;;;;;21.64;50.28;99297.67;1714821;83;21126;-64
2022/06/14 11:17:59;;;;;;;2.95;1.10;;;;;;;21.75;51.23;99298.27;1717321;82;21052;-67
2022/06/14 11:20:49;;;;;;;4.03;1.35;;;;;;;21.81;50.33;99295.28;1718280;82;21525;-68
2022/06/14 11:23:39;;;;;;;1.80;1.20;;;;;;;22.00;49.45;99294.64;1699178;84;21073;-67
2022/06/14 11:26:29;;;;;;;3.33;1.20;;;;;;;22.20;50.14;99282.95;1717313;83;21269;-65
2022/06/14 11:29:22;;;;;;;2.10;1.20;;;;;;;22.40;49.14;99288.89;1714642;82;21523;-67
2022/06/14 11:32:04;;;;;;;2.58;1.42;;;;;;;22.48;47.47;99282.66;1718726;83;21101;-68
2022/06/14 11:35:14;;;;;;;2.70;1.92;;;;;;;22.41;45.32;99286.30;1718216;82;21055;-64
2022/06/14 11:37:59;;;;;;;3.75;1.12;;;;;;;22.32;46.72;99283.92;1677091;84;21573;-66
2022/06/14 11:40:35;;;;;;;3.30;1.20;;;;;;;22.17;46.11;99283.17;1710301;83;21152;-66
2022/06/14 11:43:53;;;;;;;2.90;1.25;;;;;;;22.13;46.08;99290.20;1715865;82;21055;-67
2022/06/14 11:46:37;;;;;;;1.67;1.35;;;;;;;22.08;45.56;99283.59;1712858;82;21110;-64
2022/06/14 11:49:27;;;;;;;5.50;1.35;;;;;;;22.17;45.61;99273.95;1704579;82;21057;-66
2022/06/14 11:52:37;;;;;;;2.33;1.45;;;;;;;22.34;44.73;99285.72;1693951;84;21029;-67
2022/06/14 11:55:35;;;;;;;2.62;1.30;;;;;;;22.38;45.02;99282.91;1755631;81;21177;-67
2022/06/14 11:58:19;;;;;;;1.80;1.22;;;;;;;22.48;45.77;99289.05;1751682;81;21024;-65
2022/06/14 12:01:23;;;;;;;1.50;1.35;;;;;;;22.58;44.13;99288.83;1754118;81;21052;-67
2022/06/14 12:04:24;;;;;;;4.58;1.45;;;;;;;22.58;44.48;99279.00;1694230;81;21768;-67
2022/06/14 12:07:26;;;;;;;2.20;1.30;;;;;;;22.68;43.57;99282.18;1749256;81;21051;-67
2022/06/14 12:10:33;;;;;;;4.40;1.50;;;;;;;22.77;44.10;99275.52;1718157;82;21568;-67
2022/06/14 12:13:15;;;;;;;6.50;1.42;;;;;;;22.91;43.88;99275.24;1755509;81;21674;-65
2022/06/14 12:16:00;;;;;;;4.08;1.72;;;;;;;23.02;42.41;99277.36;1745552;81;21032;-65
2022/06/14 12:18:30;;;;;;;4.47;1.72;;;;;;;23.01;42.33;99277.18;1699302;84;21011;-65
2022/06/14 12:21:14;;;;;;;5.50;1.65;;;;;;;23.07;42.24;99281.14;1718191;83;21138;-67
2022/06/14 12:23:45;;;;;;;3.65;1.70;;;;;;;23.11;42.91;99278.31;1705485;84;22003;-65
2022/06/14 12:26:41;;;;;;;2.60;1.22;;;;;;;23.17;41.88;99276.65;1717804;83;21118;-67
2022/06/14 12:29:28;;;;;;;2.92;1.30;;;;;;;23.22;42.25;99282.42;1749369;81;21043;-64
2022/06/14 12:32:27;;;;;;;2.85;1.50;;;;;;;23.25;41.67;99285.03;1741875;81;21615;-67
2022/06/14 12:35:02;;;;;;;5.78;1.50;;;;;;;23.17;41.96;99282.86;1741093;81;21020;-67
2022/06/14 12:38:02;;;;;;;2.87;1.25;;;;;;;23.21;41.27;99283.05;1714369;83;21555;-67
2022/06/14 12:40:40;;;;;;;1.95;1.32;;;;;;;23.30;42.01;99278.97;1743770;81;20989;-66
2022/06/14 12:43:32;;;;;;;9.55;1.55;;;;;;;23.33;42.07;99293.00;1747978;81;20977;-68
2022/06/14 12:46:04;;;;;;;2.12;1.65;;;;;;;23.17;42.75;99292.70;1749096;81;20988;-65
2022/06/14 12:48:50;;;;;;;3.02;1.30;;;;;;;23.04;42.25;99289.59;1702058;83;21488;-67
2022/06/14 12:51:57;;;;;;;4.95;2.10;;;;;;;22.82;42.27;99302.36;1702913;82;22130;-68
2022/06/14 12:54:47;;;;;;;3.33;1.20;;;;;;;22.60;41.83;99284.98;1709349;82;20992;-69
2022/06/14 12:57:25;;;;;;;4.95;1.52;;;;;;;22.49;42.57;99287.05;1715310;83;21000;-67
2022/06/14 13:00:00;;;;;;;1.62;1.40;;;;;;;22.56;43.57;99291.23;1744725;81;21567;-67
2022/06/14 13:02:42;;;;;;;3.35;1.60;;;;;;;22.69;43.90;99278.18;1740746;81;21028;-64
2022/06/14 13:05:14;;;;;;;4.95;1.42;;;;;;;22.88;43.48;99286.67;1713604;83;21605;-66
2022/06/14 13:08:23;;;;;;;5.53;1.60;;;;;;;22.98;42.82;99282.19;1733981;81;21031;-69
2022/06/14 13:11:12;;;;;;;3.22;1.57;;;;;;;23.04;43.24;99293.20;1742314;81;21159;-67
2022/06/14 13:14:12;;;;;;;2.55;1.62;;;;;;;23.02;43.13;99285.79;1748411;81;21058;-66